sensor_id;sensor_type;location;lat;lon;timestamp;P1;durP1;ratioP1;P2;durP2;ratioP2
46751;SDS011;32497;48.936;9.270;2023-04-24T00:03:42;2.10;;;0.50;;
46751;SDS011;32497;48.936;9.270;2023-04-24T00:08:43;0.60;;;0.30;;
46751;SDS011;32497;48.936;9.270;2023-04-24T00:13:44;0.67;;;0.30;;
46751;SDS011;32497;48.936;9.270;2023-04-24T00:18:46;0.70;;;0.30;;
46751;SDS011;32497;48.936;9.270;2023-04-24T00:23:48;0.60;;;0.30;;
46751;SDS011;32497;48.936;9.270;2023-04-24T00:28:49;0.60;;;0.37;;
46751;SDS011;32497;48.936;9.270;2023-04-24T00:33:51;1.63;;;0.50;;
46751;SDS011;32497;48.936;9.270;2023-04-24T00:38:52;0.70;;;0.40;;
46751;SDS011;32497;48.936;9.270;2023-04-24T00:43:53;0.83;;;0.30;;
46751;SDS011;32497;48.936;9.270;2023-04-24T00:48:56;0.53;;;0.20;;
46751;SDS011;32497;48.936;9.270;2023-04-24T00:53:59;0.63;;;0.30;;
46751;SDS011;32497;48.936;9.270;2023-04-24T00:59:00;0.87;;;0.33;;
46751;SDS011;32497;48.936;9.270;2023-04-24T01:04:03;0.90;;;0.30;;
46751;SDS011;32497;48.936;9.270;2023-04-24T01:09:04;0.40;;;0.20;;
46751;SDS011;32497;48.936;9.270;2023-04-24T01:14:07;0.50;;;0.30;;
46751;SDS011;32497;48.936;9.270;2023-04-24T01:19:09;0.40;;;0.30;;
46751;SDS011;32497;48.936;9.270;2023-04-24T01:24:12;0.90;;;0.40;;
46751;SDS011;32497;48.936;9.270;2023-04-24T01:29:13;1.47;;;0.27;;
46751;SDS011;32497;48.936;9.270;2023-04-24T01:34:17;1.90;;;0.20;;
46751;SDS011;32497;48.936;9.270;2023-04-24T01:39:19;1.10;;;0.20;;
46751;SDS011;32497;48.936;9.270;2023-04-24T01:44:21;0.93;;;0.30;;
46751;SDS011;32497;48.936;9.270;2023-04-24T01:49:22;0.63;;;0.30;;
46751;SDS011;32497;48.936;9.270;2023-04-24T01:54:24;0.63;;;0.30;;
46751;SDS011;32497;48.936;9.270;2023-04-24T01:59:26;0.70;;;0.30;;
46751;SDS011;32497;48.936;9.270;2023-04-24T02:04:28;1.57;;;0.30;;
46751;SDS011;32497;48.936;9.270;2023-04-24T02:09:31;2.10;;;0.20;;
46751;SDS011;32497;48.936;9.270;2023-04-24T02:14:32;1.50;;;0.40;;
46751;SDS011;32497;48.936;9.270;2023-04-24T02:19:33;0.63;;;0.33;;
46751;SDS011;32497;48.936;9.270;2023-04-24T02:24:36;0.63;;;0.30;;
46751;SDS011;32497;48.936;9.270;2023-04-24T02:29:37;0.33;;;0.10;;
46751;SDS011;32497;48.936;9.270;2023-04-24T02:34:38;0.40;;;0.20;;
46751;SDS011;32497;48.936;9.270;2023-04-24T02:39:40;0.20;;;0.20;;
46751;SDS011;32497;48.936;9.270;2023-04-24T02:44:41;0.40;;;0.30;;
46751;SDS011;32497;48.936;9.270;2023-04-24T02:49:43;0.40;;;0.27;;
46751;SDS011;32497;48.936;9.270;2023-04-24T02:54:46;0.40;;;0.10;;
46751;SDS011;32497;48.936;9.270;2023-04-24T02:59:47;0.60;;;0.30;;
46751;SDS011;32497;48.936;9.270;2023-04-24T03:04:48;1.00;;;0.10;;
46751;SDS011;32497;48.936;9.270;2023-04-24T03:09:51;1.63;;;0.30;;
46751;SDS011;32497;48.936;9.270;2023-04-24T03:14:52;2.63;;;0.40;;
46751;SDS011;32497;48.936;9.270;2023-04-24T03:19:53;0.43;;;0.23;;
46751;SDS011;32497;48.936;9.270;2023-04-24T03:24:56;0.57;;;0.30;;
46751;SDS011;32497;48.936;9.270;2023-04-24T03:29:57;1.10;;;0.40;;
46751;SDS011;32497;48.936;9.270;2023-04-24T03:35:06;0.30;;;0.27;;
46751;SDS011;32497;48.936;9.270;2023-04-24T03:40:09;1.03;;;0.47;;
46751;SDS011;32497;48.936;9.270;2023-04-24T03:45:12;2.27;;;0.60;;
46751;SDS011;32497;48.936;9.270;2023-04-24T03:50:17;0.73;;;0.23;;
46751;SDS011;32497;48.936;9.270;2023-04-24T03:55:20;0.50;;;0.30;;
46751;SDS011;32497;48.936;9.270;2023-04-24T04:00:22;2.00;;;0.30;;
46751;SDS011;32497;48.936;9.270;2023-04-24T04:05:36;0.57;;;0.30;;
46751;SDS011;32497;48.936;9.270;2023-04-24T04:10:38;0.70;;;0.30;;
46751;SDS011;32497;48.936;9.270;2023-04-24T04:15:39;0.60;;;0.40;;
46751;SDS011;32497;48.936;9.270;2023-04-24T04:20:41;0.50;;;0.40;;
46751;SDS011;32497;48.936;9.270;2023-04-24T04:25:44;2.50;;;0.50;;
46751;SDS011;32497;48.936;9.270;2023-04-24T04:30:46;1.20;;;0.70;;
46751;SDS011;32497;48.936;9.270;2023-04-24T04:35:47;0.70;;;0.30;;
46751;SDS011;32497;48.936;9.270;2023-04-24T04:40:50;1.40;;;0.40;;
46751;SDS011;32497;48.936;9.270;2023-04-24T04:45:53;0.33;;;0.30;;
46751;SDS011;32497;48.936;9.270;2023-04-24T04:51:29;0.83;;;0.50;;
46751;SDS011;32497;48.936;9.270;2023-04-24T04:56:32;1.93;;;0.33;;
46751;SDS011;32497;48.936;9.270;2023-04-24T05:01:35;0.73;;;0.40;;
46751;SDS011;32497;48.936;9.270;2023-04-24T05:06:37;1.13;;;0.63;;
46751;SDS011;32497;48.936;9.270;2023-04-24T05:11:41;1.67;;;0.50;;
46751;SDS011;32497;48.936;9.270;2023-04-24T05:16:42;2.67;;;0.50;;
46751;SDS011;32497;48.936;9.270;2023-04-24T05:21:44;0.60;;;0.40;;
46751;SDS011;32497;48.936;9.270;2023-04-24T05:26:47;1.63;;;0.53;;
46751;SDS011;32497;48.936;9.270;2023-04-24T05:31:51;1.33;;;0.80;;
46751;SDS011;32497;48.936;9.270;2023-04-24T05:36:52;1.93;;;0.90;;
46751;SDS011;32497;48.936;9.270;2023-04-24T05:41:55;1.87;;;0.70;;
46751;SDS011;32497;48.936;9.270;2023-04-24T05:46:56;1.37;;;0.90;;
46751;SDS011;32497;48.936;9.270;2023-04-24T05:51:58;2.43;;;0.67;;
46751;SDS011;32497;48.936;9.270;2023-04-24T05:57:00;1.97;;;0.97;;
46751;SDS011;32497;48.936;9.270;2023-04-24T06:02:12;1.10;;;0.70;;
46751;SDS011;32497;48.936;9.270;2023-04-24T06:07:13;3.80;;;1.10;;
46751;SDS011;32497;48.936;9.270;2023-04-24T06:12:18;1.43;;;0.90;;
46751;SDS011;32497;48.936;9.270;2023-04-24T06:17:40;2.77;;;0.90;;
46751;SDS011;32497;48.936;9.270;2023-04-24T06:22:41;1.83;;;1.00;;
46751;SDS011;32497;48.936;9.270;2023-04-24T06:27:45;1.67;;;1.00;;
46751;SDS011;32497;48.936;9.270;2023-04-24T06:32:46;1.43;;;0.90;;
46751;SDS011;32497;48.936;9.270;2023-04-24T06:37:49;2.30;;;1.07;;
46751;SDS011;32497;48.936;9.270;2023-04-24T06:42:52;1.47;;;0.97;;
46751;SDS011;32497;48.936;9.270;2023-04-24T06:47:53;2.77;;;0.70;;
46751;SDS011;32497;48.936;9.270;2023-04-24T06:52:54;1.27;;;0.80;;
46751;SDS011;32497;48.936;9.270;2023-04-24T06:57:57;0.80;;;0.60;;
46751;SDS011;32497;48.936;9.270;2023-04-24T07:02:58;1.27;;;0.70;;
46751;SDS011;32497;48.936;9.270;2023-04-24T07:07:59;2.43;;;0.80;;
46751;SDS011;32497;48.936;9.270;2023-04-24T07:13:01;1.20;;;0.80;;
46751;SDS011;32497;48.936;9.270;2023-04-24T07:18:03;1.53;;;0.83;;
46751;SDS011;32497;48.936;9.270;2023-04-24T07:23:04;3.07;;;0.90;;
46751;SDS011;32497;48.936;9.270;2023-04-24T07:28:06;1.60;;;0.80;;
46751;SDS011;32497;48.936;9.270;2023-04-24T07:33:07;1.60;;;1.00;;
46751;SDS011;32497;48.936;9.270;2023-04-24T07:38:08;1.23;;;0.70;;
46751;SDS011;32497;48.936;9.270;2023-04-24T07:43:11;2.27;;;0.70;;
46751;SDS011;32497;48.936;9.270;2023-04-24T07:48:12;1.00;;;0.63;;
46751;SDS011;32497;48.936;9.270;2023-04-24T07:53:13;1.77;;;0.87;;
46751;SDS011;32497;48.936;9.270;2023-04-24T07:58:15;1.83;;;0.80;;
46751;SDS011;32497;48.936;9.270;2023-04-24T08:03:16;1.03;;;0.80;;
46751;SDS011;32497;48.936;9.270;2023-04-24T08:08:19;1.70;;;0.57;;
46751;SDS011;32497;48.936;9.270;2023-04-24T08:13:23;2.10;;;0.80;;
46751;SDS011;32497;48.936;9.270;2023-04-24T08:18:24;3.00;;;0.80;;
46751;SDS011;32497;48.936;9.270;2023-04-24T08:23:25;1.10;;;0.60;;
46751;SDS011;32497;48.936;9.270;2023-04-24T08:28:27;1.27;;;0.60;;
46751;SDS011;32497;48.936;9.270;2023-04-24T08:33:29;6.83;;;0.80;;
46751;SDS011;32497;48.936;9.270;2023-04-24T08:38:30;1.13;;;0.50;;
46751;SDS011;32497;48.936;9.270;2023-04-24T08:43:33;0.90;;;0.47;;
46751;SDS011;32497;48.936;9.270;2023-04-24T08:48:35;2.70;;;0.53;;
46751;SDS011;32497;48.936;9.270;2023-04-24T08:53:37;1.57;;;0.73;;
46751;SDS011;32497;48.936;9.270;2023-04-24T08:58:40;1.23;;;0.60;;
46751;SDS011;32497;48.936;9.270;2023-04-24T09:03:41;0.90;;;0.50;;
46751;SDS011;32497;48.936;9.270;2023-04-24T09:08:43;1.30;;;0.47;;
46751;SDS011;32497;48.936;9.270;2023-04-24T09:13:47;1.57;;;0.77;;
46751;SDS011;32497;48.936;9.270;2023-04-24T09:18:49;1.63;;;0.60;;
46751;SDS011;32497;48.936;9.270;2023-04-24T09:23:59;1.23;;;0.73;;
46751;SDS011;32497;48.936;9.270;2023-04-24T09:29:02;0.83;;;0.50;;
46751;SDS011;32497;48.936;9.270;2023-04-24T09:34:04;1.57;;;0.60;;
46751;SDS011;32497;48.936;9.270;2023-04-24T09:39:06;0.70;;;0.50;;
46751;SDS011;32497;48.936;9.270;2023-04-24T09:44:12;1.40;;;0.60;;
46751;SDS011;32497;48.936;9.270;2023-04-24T09:49:14;0.60;;;0.40;;
46751;SDS011;32497;48.936;9.270;2023-04-24T09:54:17;0.52;;;0.20;;
46751;SDS011;32497;48.936;9.270;2023-04-24T09:59:20;0.85;;;0.50;;
46751;SDS011;32497;48.936;9.270;2023-04-24T10:04:22;0.55;;;0.40;;
46751;SDS011;32497;48.936;9.270;2023-04-24T10:09:25;2.22;;;0.55;;
46751;SDS011;32497;48.936;9.270;2023-04-24T10:14:28;0.77;;;0.60;;
46751;SDS011;32497;48.936;9.270;2023-04-24T10:19:30;1.42;;;0.60;;
46751;SDS011;32497;48.936;9.270;2023-04-24T10:24:33;1.45;;;0.50;;
46751;SDS011;32497;48.936;9.270;2023-04-24T10:29:35;0.82;;;0.60;;
46751;SDS011;32497;48.936;9.270;2023-04-24T10:34:38;1.48;;;0.60;;
46751;SDS011;32497;48.936;9.270;2023-04-24T10:39:39;1.27;;;0.70;;
46751;SDS011;32497;48.936;9.270;2023-04-24T10:44:41;1.07;;;0.70;;
46751;SDS011;32497;48.936;9.270;2023-04-24T10:49:43;1.47;;;0.80;;
46751;SDS011;32497;48.936;9.270;2023-04-24T10:54:44;1.43;;;0.97;;
46751;SDS011;32497;48.936;9.270;2023-04-24T10:59:48;1.63;;;0.60;;
46751;SDS011;32497;48.936;9.270;2023-04-24T11:04:50;1.30;;;0.73;;
46751;SDS011;32497;48.936;9.270;2023-04-24T11:09:56;1.05;;;0.60;;
46751;SDS011;32497;48.936;9.270;2023-04-24T11:15:01;1.80;;;0.73;;
46751;SDS011;32497;48.936;9.270;2023-04-24T11:20:03;1.35;;;0.65;;
46751;SDS011;32497;48.936;9.270;2023-04-24T11:25:06;2.15;;;0.70;;
46751;SDS011;32497;48.936;9.270;2023-04-24T11:30:10;2.35;;;0.60;;
46751;SDS011;32497;48.936;9.270;2023-04-24T11:35:13;1.05;;;0.50;;
46751;SDS011;32497;48.936;9.270;2023-04-24T11:40:17;1.50;;;0.80;;
46751;SDS011;32497;48.936;9.270;2023-04-24T11:45:20;1.27;;;0.88;;
46751;SDS011;32497;48.936;9.270;2023-04-24T11:50:23;1.55;;;0.70;;
46751;SDS011;32497;48.936;9.270;2023-04-24T11:55:26;0.85;;;0.60;;
46751;SDS011;32497;48.936;9.270;2023-04-24T12:00:31;1.52;;;0.90;;
46751;SDS011;32497;48.936;9.270;2023-04-24T12:05:32;0.90;;;0.70;;
46751;SDS011;32497;48.936;9.270;2023-04-24T12:10:34;0.90;;;0.70;;
46751;SDS011;32497;48.936;9.270;2023-04-24T12:15:39;0.97;;;0.70;;
46751;SDS011;32497;48.936;9.270;2023-04-24T12:20:40;1.60;;;1.02;;
46751;SDS011;32497;48.936;9.270;2023-04-24T12:25:42;2.28;;;1.00;;
46751;SDS011;32497;48.936;9.270;2023-04-24T12:30:47;1.47;;;0.97;;
46751;SDS011;32497;48.936;9.270;2023-04-24T12:35:51;1.73;;;0.93;;
46751;SDS011;32497;48.936;9.270;2023-04-24T12:41:01;1.67;;;0.90;;
46751;SDS011;32497;48.936;9.270;2023-04-24T12:46:04;1.87;;;0.70;;
46751;SDS011;32497;48.936;9.270;2023-04-24T12:51:05;3.10;;;0.70;;
46751;SDS011;32497;48.936;9.270;2023-04-24T12:56:07;1.73;;;0.87;;
46751;SDS011;32497;48.936;9.270;2023-04-24T13:01:09;1.17;;;0.73;;
46751;SDS011;32497;48.936;9.270;2023-04-24T13:06:10;1.90;;;1.00;;
46751;SDS011;32497;48.936;9.270;2023-04-24T13:11:11;1.53;;;0.97;;
46751;SDS011;32497;48.936;9.270;2023-04-24T13:16:14;1.88;;;1.20;;
46751;SDS011;32497;48.936;9.270;2023-04-24T13:21:16;2.20;;;1.13;;
46751;SDS011;32497;48.936;9.270;2023-04-24T13:26:17;2.65;;;1.30;;
46751;SDS011;32497;48.936;9.270;2023-04-24T13:31:20;1.17;;;0.80;;
46751;SDS011;32497;48.936;9.270;2023-04-24T13:36:21;1.33;;;0.90;;
46751;SDS011;32497;48.936;9.270;2023-04-24T13:41:22;1.40;;;0.90;;
46751;SDS011;32497;48.936;9.270;2023-04-24T13:46:25;1.48;;;1.20;;
46751;SDS011;32497;48.936;9.270;2023-04-24T13:51:26;1.40;;;1.10;;
46751;SDS011;32497;48.936;9.270;2023-04-24T13:56:27;1.75;;;0.98;;
46751;SDS011;32497;48.936;9.270;2023-04-24T14:01:29;1.17;;;0.90;;
46751;SDS011;32497;48.936;9.270;2023-04-24T14:06:31;2.95;;;0.90;;
46751;SDS011;32497;48.936;9.270;2023-04-24T14:11:33;1.23;;;0.93;;
46751;SDS011;32497;48.936;9.270;2023-04-24T14:16:36;1.88;;;1.08;;
46751;SDS011;32497;48.936;9.270;2023-04-24T14:21:37;1.45;;;0.98;;
46751;SDS011;32497;48.936;9.270;2023-04-24T14:26:38;1.40;;;0.90;;
46751;SDS011;32497;48.936;9.270;2023-04-24T14:31:41;1.40;;;1.10;;
46751;SDS011;32497;48.936;9.270;2023-04-24T14:36:43;1.27;;;0.90;;
46751;SDS011;32497;48.936;9.270;2023-04-24T14:41:44;2.53;;;0.85;;
46751;SDS011;32497;48.936;9.270;2023-04-24T14:46:47;2.55;;;1.20;;
46751;SDS011;32497;48.936;9.270;2023-04-24T14:51:49;1.30;;;1.00;;
46751;SDS011;32497;48.936;9.270;2023-04-24T14:56:50;2.53;;;1.00;;
46751;SDS011;32497;48.936;9.270;2023-04-24T15:01:52;1.63;;;0.93;;
46751;SDS011;32497;48.936;9.270;2023-04-24T15:06:54;0.98;;;0.70;;
46751;SDS011;32497;48.936;9.270;2023-04-24T15:11:55;2.70;;;0.80;;
46751;SDS011;32497;48.936;9.270;2023-04-24T15:16:58;1.30;;;0.55;;
46751;SDS011;32497;48.936;9.270;2023-04-24T15:21:59;1.33;;;0.60;;
46751;SDS011;32497;48.936;9.270;2023-04-24T15:27:00;2.65;;;0.82;;
46751;SDS011;32497;48.936;9.270;2023-04-24T15:32:05;1.40;;;0.77;;
46751;SDS011;32497;48.936;9.270;2023-04-24T15:37:06;1.25;;;0.77;;
46751;SDS011;32497;48.936;9.270;2023-04-24T15:42:08;1.20;;;0.70;;
46751;SDS011;32497;48.936;9.270;2023-04-24T15:47:10;1.10;;;0.68;;
46751;SDS011;32497;48.936;9.270;2023-04-24T15:52:12;2.15;;;0.82;;
46751;SDS011;32497;48.936;9.270;2023-04-24T15:57:13;1.40;;;0.70;;
46751;SDS011;32497;48.936;9.270;2023-04-24T16:02:15;1.17;;;0.50;;
46751;SDS011;32497;48.936;9.270;2023-04-24T16:07:17;1.15;;;0.75;;
46751;SDS011;32497;48.936;9.270;2023-04-24T16:12:18;1.65;;;0.90;;
46751;SDS011;32497;48.936;9.270;2023-04-24T16:17:20;0.68;;;0.60;;
46751;SDS011;32497;48.936;9.270;2023-04-24T16:22:21;1.33;;;0.60;;
46751;SDS011;32497;48.936;9.270;2023-04-24T16:27:23;0.88;;;0.50;;
46751;SDS011;32497;48.936;9.270;2023-04-24T16:32:25;0.93;;;0.63;;
46751;SDS011;32497;48.936;9.270;2023-04-24T16:37:27;2.25;;;0.75;;
46751;SDS011;32497;48.936;9.270;2023-04-24T16:42:29;1.00;;;0.70;;
46751;SDS011;32497;48.936;9.270;2023-04-24T16:47:31;0.85;;;0.60;;
46751;SDS011;32497;48.936;9.270;2023-04-24T16:52:32;1.20;;;0.73;;
46751;SDS011;32497;48.936;9.270;2023-04-24T16:57:34;0.83;;;0.40;;
46751;SDS011;32497;48.936;9.270;2023-04-24T17:02:37;1.77;;;0.50;;
46751;SDS011;32497;48.936;9.270;2023-04-24T17:07:38;1.20;;;0.63;;
46751;SDS011;32497;48.936;9.270;2023-04-24T17:12:40;1.50;;;0.60;;
46751;SDS011;32497;48.936;9.270;2023-04-24T17:17:42;2.17;;;0.70;;
46751;SDS011;32497;48.936;9.270;2023-04-24T17:22:43;1.23;;;0.60;;
46751;SDS011;32497;48.936;9.270;2023-04-24T17:27:44;1.37;;;0.70;;
46751;SDS011;32497;48.936;9.270;2023-04-24T17:32:47;1.13;;;0.70;;
46751;SDS011;32497;48.936;9.270;2023-04-24T17:37:48;1.40;;;0.80;;
46751;SDS011;32497;48.936;9.270;2023-04-24T17:42:49;1.70;;;0.70;;
46751;SDS011;32497;48.936;9.270;2023-04-24T17:47:52;0.73;;;0.53;;
46751;SDS011;32497;48.936;9.270;2023-04-24T17:52:53;2.17;;;0.70;;
46751;SDS011;32497;48.936;9.270;2023-04-24T17:57:54;1.03;;;0.57;;
46751;SDS011;32497;48.936;9.270;2023-04-24T18:02:56;1.00;;;0.60;;
46751;SDS011;32497;48.936;9.270;2023-04-24T18:07:58;2.30;;;0.70;;
46751;SDS011;32497;48.936;9.270;2023-04-24T18:12:59;1.13;;;0.60;;
46751;SDS011;32497;48.936;9.270;2023-04-24T18:18:05;0.83;;;0.57;;
46751;SDS011;32497;48.936;9.270;2023-04-24T18:23:06;2.30;;;0.60;;
46751;SDS011;32497;48.936;9.270;2023-04-24T18:28:07;1.30;;;0.83;;
46751;SDS011;32497;48.936;9.270;2023-04-24T18:33:10;1.43;;;0.87;;
46751;SDS011;32497;48.936;9.270;2023-04-24T18:38:11;5.93;;;0.87;;
46751;SDS011;32497;48.936;9.270;2023-04-24T18:43:12;0.90;;;0.50;;
46751;SDS011;32497;48.936;9.270;2023-04-24T18:48:15;2.30;;;0.83;;
46751;SDS011;32497;48.936;9.270;2023-04-24T18:53:17;0.80;;;0.70;;
46751;SDS011;32497;48.936;9.270;2023-04-24T18:58:19;1.17;;;0.80;;
46751;SDS011;32497;48.936;9.270;2023-04-24T19:03:21;1.77;;;0.80;;
46751;SDS011;32497;48.936;9.270;2023-04-24T19:08:22;1.97;;;1.00;;
46751;SDS011;32497;48.936;9.270;2023-04-24T19:13:23;1.33;;;0.77;;
46751;SDS011;32497;48.936;9.270;2023-04-24T19:18:26;2.00;;;1.00;;
46751;SDS011;32497;48.936;9.270;2023-04-24T19:23:27;2.10;;;1.00;;
46751;SDS011;32497;48.936;9.270;2023-04-24T19:28:29;3.37;;;1.47;;
46751;SDS011;32497;48.936;9.270;2023-04-24T19:33:31;3.67;;;1.30;;
46751;SDS011;32497;48.936;9.270;2023-04-24T19:38:32;1.70;;;1.27;;
46751;SDS011;32497;48.936;9.270;2023-04-24T19:43:34;3.23;;;1.27;;
46751;SDS011;32497;48.936;9.270;2023-04-24T19:48:36;1.83;;;1.20;;
46751;SDS011;32497;48.936;9.270;2023-04-24T19:53:37;1.90;;;1.10;;
46751;SDS011;32497;48.936;9.270;2023-04-24T19:58:39;2.00;;;1.10;;
46751;SDS011;32497;48.936;9.270;2023-04-24T20:03:41;2.50;;;1.33;;
46751;SDS011;32497;48.936;9.270;2023-04-24T20:08:42;2.30;;;1.40;;
46751;SDS011;32497;48.936;9.270;2023-04-24T20:13:44;2.47;;;1.17;;
46751;SDS011;32497;48.936;9.270;2023-04-24T20:18:46;3.43;;;1.33;;
46751;SDS011;32497;48.936;9.270;2023-04-24T20:23:47;2.70;;;0.87;;
46751;SDS011;32497;48.936;9.270;2023-04-24T20:28:48;2.00;;;1.00;;
46751;SDS011;32497;48.936;9.270;2023-04-24T20:33:51;2.23;;;1.30;;
46751;SDS011;32497;48.936;9.270;2023-04-24T20:38:52;1.90;;;1.03;;
46751;SDS011;32497;48.936;9.270;2023-04-24T20:43:53;3.00;;;1.30;;
46751;SDS011;32497;48.936;9.270;2023-04-24T20:48:56;3.20;;;1.50;;
46751;SDS011;32497;48.936;9.270;2023-04-24T20:53:57;1.73;;;1.20;;
46751;SDS011;32497;48.936;9.270;2023-04-24T20:58:59;2.23;;;1.20;;
46751;SDS011;32497;48.936;9.270;2023-04-24T21:04:01;3.50;;;1.47;;
46751;SDS011;32497;48.936;9.270;2023-04-24T21:09:02;3.53;;;1.40;;
46751;SDS011;32497;48.936;9.270;2023-04-24T21:14:03;3.40;;;1.77;;
46751;SDS011;32497;48.936;9.270;2023-04-24T21:19:06;3.10;;;1.50;;
46751;SDS011;32497;48.936;9.270;2023-04-24T21:24:07;3.47;;;1.60;;
46751;SDS011;32497;48.936;9.270;2023-04-24T21:29:08;3.27;;;1.60;;
46751;SDS011;32497;48.936;9.270;2023-04-24T21:34:11;3.63;;;1.60;;
46751;SDS011;32497;48.936;9.270;2023-04-24T21:39:12;2.50;;;1.33;;
46751;SDS011;32497;48.936;9.270;2023-04-24T21:44:13;2.10;;;1.40;;
46751;SDS011;32497;48.936;9.270;2023-04-24T21:49:16;3.00;;;1.40;;
46751;SDS011;32497;48.936;9.270;2023-04-24T21:54:17;2.63;;;1.33;;
46751;SDS011;32497;48.936;9.270;2023-04-24T21:59:18;5.07;;;1.30;;
46751;SDS011;32497;48.936;9.270;2023-04-24T22:04:21;2.33;;;1.20;;
46751;SDS011;32497;48.936;9.270;2023-04-24T22:09:22;2.83;;;1.30;;
46751;SDS011;32497;48.936;9.270;2023-04-24T22:14:23;3.50;;;1.30;;
46751;SDS011;32497;48.936;9.270;2023-04-24T22:19:25;2.17;;;1.30;;
46751;SDS011;32497;48.936;9.270;2023-04-24T22:24:26;1.57;;;1.07;;
46751;SDS011;32497;48.936;9.270;2023-04-24T22:29:28;2.00;;;1.20;;
46751;SDS011;32497;48.936;9.270;2023-04-24T22:34:31;3.30;;;1.40;;
46751;SDS011;32497;48.936;9.270;2023-04-24T22:39:32;2.80;;;1.50;;
46751;SDS011;32497;48.936;9.270;2023-04-24T22:44:33;2.07;;;1.00;;
46751;SDS011;32497;48.936;9.270;2023-04-24T22:49:36;3.10;;;1.40;;
46751;SDS011;32497;48.936;9.270;2023-04-24T22:54:37;1.77;;;1.07;;
46751;SDS011;32497;48.936;9.270;2023-04-24T22:59:39;3.00;;;1.37;;
46751;SDS011;32497;48.936;9.270;2023-04-24T23:04:41;2.00;;;1.03;;
46751;SDS011;32497;48.936;9.270;2023-04-24T23:09:42;3.63;;;1.50;;
46751;SDS011;32497;48.936;9.270;2023-04-24T23:14:43;4.53;;;1.07;;
46751;SDS011;32497;48.936;9.270;2023-04-24T23:19:46;2.17;;;1.43;;
46751;SDS011;32497;48.936;9.270;2023-04-24T23:24:47;3.30;;;1.47;;
46751;SDS011;32497;48.936;9.270;2023-04-24T23:29:48;2.53;;;1.20;;
46751;SDS011;32497;48.936;9.270;2023-04-24T23:34:51;2.13;;;1.40;;
46751;SDS011;32497;48.936;9.270;2023-04-24T23:39:52;2.00;;;1.33;;
46751;SDS011;32497;48.936;9.270;2023-04-24T23:44:53;2.73;;;1.40;;
46751;SDS011;32497;48.936;9.270;2023-04-24T23:49:55;3.00;;;1.53;;
46751;SDS011;32497;48.936;9.270;2023-04-24T23:54:56;3.53;;;1.43;;
46751;SDS011;32497;48.936;9.270;2023-04-24T23:59:57;2.40;;;1.20;;
